createdAt,value
2023-03-04T00:02:03.251Z,6.00
2023-03-04T00:07:11.091Z,7.40
2023-03-04T00:12:16.718Z,6.30
2023-03-04T00:17:17.371Z,7.20
2023-03-04T00:22:16.663Z,7.00
2023-03-04T00:27:15.832Z,8.70
2023-03-04T00:32:16.462Z,6.70
2023-03-04T00:37:15.364Z,6.30
2023-03-04T00:42:18.635Z,6.70
2023-03-04T00:47:18.547Z,8.80
2023-03-04T00:52:17.803Z,9.00
2023-03-04T00:57:18.152Z,5.60
2023-03-04T01:02:19.209Z,6.80
2023-03-04T01:07:19.335Z,7.80
2023-03-04T01:12:18.814Z,6.70
2023-03-04T01:17:18.534Z,8.10
2023-03-04T01:22:19.180Z,8.10
2023-03-04T01:27:19.839Z,7.70
2023-03-04T01:32:19.313Z,8.00
2023-03-04T01:37:18.735Z,8.90
2023-03-04T01:42:24.859Z,8.80
2023-03-04T01:47:28.134Z,6.70
2023-03-04T01:52:28.859Z,7.30
2023-03-04T01:57:37.236Z,7.90
2023-03-04T02:02:36.068Z,9.20
2023-03-04T02:07:35.458Z,6.70
2023-03-04T02:12:35.253Z,7.70
2023-03-04T02:17:36.394Z,7.40
2023-03-04T02:22:41.713Z,6.70
2023-03-04T02:27:40.564Z,6.80
2023-03-04T02:32:39.550Z,5.80
2023-03-04T02:37:40.211Z,8.10
2023-03-04T02:42:39.702Z,7.80
2023-03-04T02:47:41.820Z,6.40
2023-03-04T02:52:41.346Z,8.10
2023-03-04T02:57:41.183Z,7.10
2023-03-04T03:02:45.808Z,6.10
2023-03-04T03:07:45.523Z,8.30
2023-03-04T03:12:45.424Z,8.90
2023-03-04T03:17:46.873Z,6.50
2023-03-04T03:22:47.963Z,7.60
2023-03-04T03:27:48.341Z,8.20
2023-03-04T03:32:49.716Z,8.90
2023-03-04T03:37:50.735Z,6.50
2023-03-04T03:42:49.881Z,7.10
2023-03-04T03:47:49.313Z,7.70
2023-03-04T03:52:48.727Z,8.50
2023-03-04T03:57:48.505Z,7.50
2023-03-04T04:02:47.667Z,6.50
2023-03-04T04:07:47.615Z,10.10
2023-03-04T04:12:49.237Z,7.40
2023-03-04T04:17:49.013Z,7.10
2023-03-04T04:22:48.420Z,7.10
2023-03-04T04:27:47.653Z,7.60
2023-03-04T04:32:46.980Z,7.20
2023-03-04T04:37:46.762Z,8.70
2023-03-04T04:42:45.320Z,7.60
2023-03-04T04:47:44.717Z,8.20
2023-03-04T04:52:44.643Z,7.20
2023-03-04T04:57:44.155Z,8.70
2023-03-04T05:02:43.508Z,6.80
2023-03-04T05:07:42.903Z,7.30
2023-03-04T05:12:42.469Z,4.80
2023-03-04T05:17:42.210Z,5.50
2023-03-04T05:22:41.727Z,5.20
2023-03-04T05:27:40.776Z,8.20
2023-03-04T05:32:44.343Z,3.90
2023-03-04T05:37:44.203Z,7.70
2023-03-04T05:42:43.217Z,7.30
2023-03-04T05:47:41.743Z,7.00
2023-03-04T05:52:40.550Z,5.50
2023-03-04T05:57:40.328Z,7.10
2023-03-04T06:02:39.433Z,7.00
2023-03-04T06:07:39.238Z,5.10
2023-03-04T06:12:38.450Z,6.10
2023-03-04T06:17:41.472Z,8.20
2023-03-04T06:22:42.464Z,6.80
2023-03-04T06:27:41.742Z,6.40
2023-03-04T06:32:40.541Z,5.20
2023-03-04T06:37:39.700Z,6.80
2023-03-04T06:42:41.250Z,5.40
2023-03-04T06:47:40.811Z,5.40
2023-03-04T06:52:40.248Z,6.80
2023-03-04T06:57:39.208Z,6.80
2023-03-04T07:02:38.871Z,6.00
2023-03-04T07:07:39.211Z,6.00
2023-03-04T07:12:38.863Z,6.80
2023-03-04T07:17:38.509Z,6.30
2023-03-04T07:22:37.475Z,6.10
2023-03-04T07:27:38.732Z,6.40
2023-03-04T07:32:37.897Z,6.80
2023-03-04T07:37:37.635Z,7.70
2023-03-04T07:42:37.538Z,6.10
2023-03-04T07:47:41.440Z,6.20
2023-03-04T07:52:44.408Z,6.30
2023-03-04T07:57:46.442Z,5.10
2023-03-04T08:02:46.700Z,6.90
2023-03-04T08:07:45.687Z,3.70
2023-03-04T08:12:47.210Z,6.50
2023-03-04T08:17:46.423Z,5.10
2023-03-04T08:22:45.792Z,4.30
2023-03-04T08:27:44.602Z,5.50
2023-03-04T08:32:44.297Z,5.40
2023-03-04T08:37:43.036Z,5.30
2023-03-04T08:42:43.919Z,3.60
2023-03-04T08:47:43.107Z,5.20
2023-03-04T08:52:42.726Z,4.90
2023-03-04T08:57:42.181Z,5.70
2023-03-04T09:02:41.852Z,8.10
2023-03-04T09:07:40.952Z,6.30
2023-03-04T09:12:40.096Z,9.40
2023-03-04T09:17:39.773Z,7.60
2023-03-04T09:22:38.921Z,10.70
2023-03-04T09:27:38.097Z,10.70
2023-03-04T09:32:38.422Z,8.30
2023-03-04T09:37:41.451Z,8.80
2023-03-04T09:42:49.147Z,6.70
2023-03-04T09:47:50.743Z,7.30
2023-03-04T09:53:09.174Z,4.20
2023-03-04T09:58:23.745Z,5.70
2023-03-04T10:03:33.471Z,5.70
2023-03-04T10:08:42.782Z,6.20
2023-03-04T10:13:52.936Z,4.50
2023-03-04T10:18:58.123Z,4.50
2023-03-04T10:23:59.755Z,5.40
2023-03-04T10:29:07.233Z,5.90
2023-03-04T10:34:07.340Z,5.00
2023-03-04T10:39:12.331Z,3.70
2023-03-04T10:44:21.774Z,4.80
2023-03-04T10:49:25.076Z,5.10
2023-03-04T10:54:32.425Z,5.80
2023-03-04T10:59:45.790Z,4.30
2023-03-04T11:04:50.600Z,4.20
2023-03-04T11:09:50.629Z,3.80
2023-03-04T11:14:54.050Z,5.40
2023-03-04T11:20:03.860Z,6.30
2023-03-04T11:25:13.856Z,5.20
2023-03-04T11:30:35.815Z,4.70
2023-03-04T11:35:45.550Z,3.30
2023-03-04T11:40:54.772Z,4.20
2023-03-04T11:46:46.511Z,3.60
2023-03-04T11:51:54.906Z,5.30
2023-03-04T11:56:59.815Z,4.80
2023-03-04T12:02:16.468Z,3.60
2023-03-04T12:07:45.298Z,3.40
2023-03-04T12:13:14.697Z,5.00
2023-03-04T12:18:37.493Z,5.70
2023-03-04T12:24:27.331Z,5.40
2023-03-04T12:29:41.822Z,2.80
2023-03-04T12:35:23.070Z,3.70
2023-03-04T12:40:43.717Z,2.80
2023-03-04T12:45:55.834Z,3.90
2023-03-04T12:51:10.156Z,2.50
2023-03-04T12:56:27.736Z,3.70
2023-03-04T13:01:34.172Z,2.50
2023-03-04T13:06:45.559Z,2.20
2023-03-04T13:12:13.857Z,3.80
2023-03-04T13:17:44.699Z,2.30
2023-03-04T13:22:56.718Z,3.50
2023-03-04T13:28:25.223Z,1.20
2023-03-04T13:34:06.352Z,0.40
2023-03-04T13:39:28.818Z,0.30
2023-03-04T13:45:02.431Z,0.40
2023-03-04T13:50:37.682Z,0.40
2023-03-04T13:55:43.230Z,0.30
2023-03-04T14:00:52.882Z,0.50
2023-03-04T14:06:13.137Z,0.50
2023-03-04T14:11:20.826Z,0.70
2023-03-04T14:16:27.947Z,0.60
2023-03-04T14:21:28.883Z,0.80
2023-03-04T14:26:31.458Z,0.60
2023-03-04T14:31:37.450Z,0.60
2023-03-04T14:36:40.474Z,0.80
2023-03-04T14:41:44.233Z,0.80
2023-03-04T14:47:04.599Z,0.40
2023-03-04T14:52:06.656Z,0.40
2023-03-04T14:57:26.315Z,0.50
2023-03-04T15:02:33.352Z,0.30
2023-03-04T15:07:38.930Z,0.20
2023-03-04T15:12:41.625Z,0.30
2023-03-04T15:17:42.772Z,0.20
2023-03-04T15:23:03.510Z,0.10
2023-03-04T15:28:04.141Z,0.10
2023-03-04T15:33:03.972Z,0.10
2023-03-04T15:38:03.766Z,0.10
2023-03-04T15:43:10.367Z,0.30
2023-03-04T15:48:15.410Z,0.30
2023-03-04T15:53:23.139Z,0.20
2023-03-04T15:58:23.232Z,0.00
2023-03-04T16:03:26.386Z,0.00
2023-03-04T16:08:29.598Z,0.10
2023-03-04T16:13:28.992Z,0.10
2023-03-04T16:18:28.144Z,0.10
2023-03-04T16:23:28.383Z,0.00
2023-03-04T16:28:28.519Z,0.00
2023-03-04T16:33:27.705Z,0.10
2023-03-04T16:38:34.408Z,0.10
2023-03-04T16:43:33.769Z,0.10
2023-03-04T16:48:33.269Z,0.00
2023-03-04T16:53:39.849Z,0.10
2023-03-04T16:58:39.286Z,0.00
2023-03-04T17:03:39.029Z,0.10
2023-03-04T17:08:39.176Z,0.00
2023-03-04T17:13:39.579Z,0.00
2023-03-04T17:18:39.203Z,0.00
2023-03-04T17:23:39.026Z,0.00
2023-03-04T17:28:38.645Z,0.00
2023-03-04T17:33:38.268Z,0.00
2023-03-04T17:38:37.831Z,0.20
2023-03-04T17:43:37.226Z,1.00
2023-03-04T17:48:36.672Z,0.40
2023-03-04T17:53:36.532Z,0.10
2023-03-04T17:58:38.301Z,0.50
2023-03-04T18:03:37.883Z,0.20
2023-03-04T18:08:37.359Z,0.20
2023-03-04T18:13:38.923Z,0.20
2023-03-04T18:18:38.259Z,0.20
2023-03-04T18:23:38.558Z,0.10
2023-03-04T18:28:38.814Z,0.20
2023-03-04T18:33:40.036Z,0.40
2023-03-04T18:38:40.714Z,0.10
2023-03-04T18:43:40.964Z,0.10
2023-03-04T18:48:46.778Z,0.40
2023-03-04T18:53:46.157Z,0.20
2023-03-04T18:58:50.591Z,0.20
2023-03-04T19:03:50.738Z,0.10
2023-03-04T19:08:55.337Z,0.50
2023-03-04T19:13:54.774Z,0.10
2023-03-04T19:18:56.162Z,0.20
2023-03-04T19:23:55.828Z,0.30
2023-03-04T19:28:56.204Z,0.10
2023-03-04T19:33:55.735Z,0.20
2023-03-04T19:38:55.682Z,0.30
2023-03-04T19:43:56.591Z,0.10
2023-03-04T19:48:56.322Z,0.80
2023-03-04T19:53:56.496Z,0.50
2023-03-04T19:58:58.219Z,0.80
2023-03-04T20:03:58.590Z,0.90
2023-03-04T20:09:01.948Z,0.50
2023-03-04T20:14:02.423Z,1.20
2023-03-04T20:19:01.847Z,0.70
2023-03-04T20:24:03.137Z,0.50
2023-03-04T20:29:02.914Z,0.50
2023-03-04T20:34:02.930Z,0.70
2023-03-04T20:39:08.279Z,0.30
2023-03-04T20:44:15.136Z,0.60
2023-03-04T20:49:20.026Z,0.60
2023-03-04T20:54:19.552Z,0.60
2023-03-04T20:59:19.908Z,0.50
2023-03-04T21:04:19.714Z,1.00
2023-03-04T21:09:20.907Z,0.60
2023-03-04T21:14:23.197Z,1.10
2023-03-04T21:19:27.628Z,0.40
2023-03-04T21:24:30.550Z,1.10
2023-03-04T21:29:30.829Z,1.00
2023-03-04T21:34:35.921Z,1.00
2023-03-04T21:39:37.093Z,0.20
2023-03-04T21:44:48.666Z,1.50
2023-03-04T21:49:49.660Z,0.70
2023-03-04T21:54:49.827Z,0.90
2023-03-04T21:59:49.474Z,0.60
2023-03-04T22:04:49.197Z,1.20
2023-03-04T22:09:48.875Z,0.70
2023-03-04T22:14:47.813Z,0.80
2023-03-04T22:19:47.659Z,0.60
2023-03-04T22:24:46.347Z,0.60
2023-03-04T22:29:46.028Z,0.20
2023-03-04T22:34:45.436Z,0.10
2023-03-04T22:39:44.687Z,0.20
2023-03-04T22:44:44.258Z,0.40
2023-03-04T22:49:47.648Z,0.10
2023-03-04T22:54:47.538Z,0.50
2023-03-04T22:59:48.520Z,0.10
2023-03-04T23:04:48.033Z,0.30
2023-03-04T23:09:47.512Z,0.20
2023-03-04T23:14:46.817Z,0.30
2023-03-04T23:19:45.494Z,0.20
2023-03-04T23:24:45.039Z,0.30
2023-03-04T23:29:44.768Z,0.20
2023-03-04T23:34:43.597Z,0.40
2023-03-04T23:39:43.261Z,0.30
2023-03-04T23:44:43.105Z,0.10
2023-03-04T23:49:42.454Z,0.20
2023-03-04T23:54:41.226Z,0.60
2023-03-04T23:59:41.261Z,0.40
